Time;durP1;ratioP1;P1;durP2;ratioP2;P2;SDS_P1;SDS_P2;PMS_P1;PMS_P2;Temp;Humidity;BMP_temperature;BMP_pressure;BME280_temperature;BME280_humidity;BME280_pressure;Samples;Min_cycle;Max_cycle;Signal;HPM_P1;HPM_P2
2023/07/11 00:00:03;;;;;;;16.55;8.18;;;22.40;99.90;;;;;;5056674;28;20055;-79
2023/07/11 00:02:29;;;;;;;13.52;7.85;;;22.30;99.90;;;;;;5054425;28;20107;-79
2023/07/11 00:04:54;;;;;;;12.40;7.85;;;22.30;99.90;;;;;;5055052;28;20029;-79
2023/07/11 00:07:20;;;;;;;12.23;8.18;;;22.30;99.90;;;;;;5055176;28;20086;-79
2023/07/11 00:09:49;;;;;;;10.88;7.63;;;22.30;99.90;;;;;;5056296;28;20371;-79
2023/07/11 00:12:16;;;;;;;15.30;9.10;;;22.20;99.90;;;;;;5055916;28;20021;-79
2023/07/11 00:14:43;;;;;;;16.13;8.15;;;22.20;99.90;;;;;;5055589;28;20021;-79
2023/07/11 00:17:09;;;;;;;17.55;8.75;;;22.20;99.90;;;;;;5055692;28;20048;-79
2023/07/11 00:19:55;;;;;;;16.70;8.68;;;22.20;99.90;;;;;;5056463;28;20441;-79
2023/07/11 00:22:22;;;;;;;17.48;7.93;;;22.10;99.90;;;;;;5055829;28;20105;-79
2023/07/11 00:24:49;;;;;;;17.10;7.90;;;22.10;99.90;;;;;;5056292;28;20032;-79
2023/07/11 00:27:17;;;;;;;12.13;8.20;;;22.10;99.90;;;;;;5054779;28;20115;-79
2023/07/11 00:29:43;;;;;;;15.05;8.15;;;22.10;99.90;;;;;;5054900;28;20024;-79
2023/07/11 00:32:10;;;;;;;11.73;7.55;;;22.10;99.90;;;;;;5056794;28;20455;-79
2023/07/11 00:34:36;;;;;;;12.25;7.18;;;22.10;99.90;;;;;;5056495;28;20367;-79
2023/07/11 00:37:02;;;;;;;18.92;7.50;;;22.10;99.90;;;;;;5056392;28;20017;-79
2023/07/11 00:39:30;;;;;;;16.73;8.00;;;22.10;99.90;;;;;;5056281;28;20045;-79
2023/07/11 00:41:56;;;;;;;15.85;8.02;;;22.10;99.90;;;;;;5056433;28;20017;-79
2023/07/11 00:44:22;;;;;;;11.02;7.93;;;22.10;99.90;;;;;;5056253;28;20048;-79
2023/07/11 00:46:49;;;;;;;11.20;7.40;;;22.10;99.90;;;;;;5056155;28;20033;-79
2023/07/11 00:49:17;;;;;;;12.00;7.75;;;22.10;99.90;;;;;;5054970;28;20140;-79
2023/07/11 00:51:55;;;;;;;13.95;7.45;;;22.10;99.90;;;;;;5054364;28;20446;-79
2023/07/11 00:54:30;;;;;;;11.88;7.43;;;22.10;99.90;;;;;;5056287;28;20021;-79
2023/07/11 00:56:58;;;;;;;16.33;8.73;;;22.10;99.90;;;;;;5054537;28;20029;-79
2023/07/11 00:59:24;;;;;;;20.65;11.27;;;22.00;99.90;;;;;;5049478;28;20032;-79
2023/07/11 01:02:10;;;;;;;14.25;9.18;;;22.00;99.90;;;;;;5055267;28;20081;-79
2023/07/11 01:04:38;;;;;;;13.23;7.90;;;22.00;99.90;;;;;;5055500;28;20032;-79
2023/07/11 01:07:06;;;;;;;13.38;8.88;;;22.00;99.90;;;;;;5055245;28;20113;-79
2023/07/11 01:09:32;;;;;;;17.15;8.18;;;21.90;99.90;;;;;;5055386;28;20025;-79
2023/07/11 01:12:02;;;;;;;14.20;8.48;;;21.90;99.90;;;;;;5054799;28;20078;-79
2023/07/11 01:14:28;;;;;;;10.95;7.97;;;21.90;99.90;;;;;;5053973;28;20116;-79
2023/07/11 01:16:54;;;;;;;12.43;8.18;;;21.90;99.90;;;;;;5053503;28;20470;-79
2023/07/11 01:19:22;;;;;;;14.93;7.95;;;21.90;99.90;;;;;;5055100;28;20045;-79
2023/07/11 01:21:48;;;;;;;18.83;8.15;;;21.80;99.90;;;;;;5048634;28;20028;-79
2023/07/11 01:24:13;;;;;;;15.50;7.90;;;21.80;99.90;;;;;;5054717;28;20017;-79
2023/07/11 01:26:40;;;;;;;13.27;7.78;;;21.80;99.90;;;;;;5054800;28;20025;-79
2023/07/11 01:29:06;;;;;;;14.57;7.68;;;21.80;99.90;;;;;;5054674;28;20444;-79
2023/07/11 01:31:34;;;;;;;14.50;7.93;;;21.70;99.90;;;;;;5053611;28;20028;-79
2023/07/11 01:34:05;;;;;;;11.98;8.02;;;21.70;99.90;;;;;;5054902;28;20029;-79
2023/07/11 01:36:32;;;;;;;13.13;7.75;;;21.70;99.90;;;;;;5054636;28;20021;-79
2023/07/11 01:38:59;;;;;;;13.77;7.30;;;21.70;99.90;;;;;;5054953;28;20032;-79
2023/07/11 01:41:25;;;;;;;18.55;8.00;;;21.70;99.90;;;;;;5037243;28;20041;-79
2023/07/11 01:43:52;;;;;;;11.95;7.32;;;21.60;99.90;;;;;;5053732;28;20545;-79
2023/07/11 01:46:17;;;;;;;10.77;7.47;;;21.60;99.90;;;;;;5052735;28;20115;-79
2023/07/11 01:48:43;;;;;;;11.88;7.05;;;21.60;99.90;;;;;;5055146;28;20420;-79
2023/07/11 01:51:09;;;;;;;12.80;7.55;;;21.50;99.90;;;;;;5053165;28;20395;-79
2023/07/11 01:53:35;;;;;;;12.73;7.72;;;21.50;99.90;;;;;;5052748;28;20045;-79
2023/07/11 01:56:03;;;;;;;11.95;7.25;;;21.50;99.90;;;;;;5053071;28;20016;-79
2023/07/11 01:58:30;;;;;;;11.68;7.13;;;21.50;99.90;;;;;;5054196;28;20438;-79
2023/07/11 02:00:58;;;;;;;13.95;7.95;;;21.50;99.90;;;;;;5053744;28;20483;-79
2023/07/11 02:03:25;;;;;;;12.32;7.65;;;21.50;99.90;;;;;;5052376;28;20021;-79
2023/07/11 02:05:51;;;;;;;11.18;7.72;;;21.50;99.90;;;;;;5054223;28;20017;-79
2023/07/11 02:08:17;;;;;;;10.23;6.45;;;21.40;99.90;;;;;;5052669;28;20079;-79
2023/07/11 02:10:43;;;;;;;18.70;7.90;;;21.40;99.90;;;;;;5054069;28;20058;-79
2023/07/11 02:13:11;;;;;;;16.95;8.23;;;21.40;99.90;;;;;;5054026;28;20060;-79
2023/07/11 02:15:36;;;;;;;13.50;7.25;;;21.40;99.90;;;;;;5052161;28;20025;-79
2023/07/11 02:18:02;;;;;;;13.80;7.40;;;21.40;99.90;;;;;;5053829;28;20037;-79
2023/07/11 02:20:28;;;;;;;11.57;7.18;;;21.30;99.90;;;;;;5052246;28;20036;-79
2023/07/11 02:22:54;;;;;;;10.80;7.57;;;21.40;99.90;;;;;;5052615;28;20083;-79
2023/07/11 02:25:19;;;;;;;12.65;7.38;;;21.30;99.90;;;;;;5052317;28;20024;-79
2023/07/11 02:27:45;;;;;;;11.18;7.03;;;21.30;99.90;;;;;;5053412;28;20013;-79
2023/07/11 02:30:11;;;;;;;14.10;7.60;;;21.30;99.90;;;;;;5053823;28;20028;-79
2023/07/11 02:32:39;;;;;;;11.98;6.75;;;21.30;99.90;;;;;;5052808;28;20103;-80
2023/07/11 02:35:05;;;;;;;10.02;6.43;;;21.30;99.90;;;;;;5054068;28;20017;-79
2023/07/11 02:37:31;;;;;;;10.48;6.30;;;21.20;99.90;;;;;;5054031;28;20025;-79
2023/07/11 02:39:57;;;;;;;13.32;7.07;;;21.20;99.90;;;;;;5054108;28;20212;-79
2023/07/11 02:42:23;;;;;;;12.50;7.70;;;21.20;99.90;;;;;;5053682;28;20048;-79
2023/07/11 02:44:48;;;;;;;12.30;7.13;;;21.20;99.90;;;;;;5052865;28;20021;-79
2023/07/11 02:47:14;;;;;;;11.35;7.53;;;21.20;99.90;;;;;;5053873;28;20074;-79
2023/07/11 02:49:41;;;;;;;12.80;7.13;;;21.20;99.90;;;;;;5053848;28;20029;-79
2023/07/11 02:52:07;;;;;;;10.60;6.80;;;21.20;99.90;;;;;;5053927;28;20048;-78
2023/07/11 02:54:36;;;;;;;13.82;7.53;;;21.20;99.90;;;;;;5053029;28;20052;-79
2023/07/11 02:57:08;;;;;;;17.95;7.32;;;21.20;99.90;;;;;;5052558;28;20028;-79
2023/07/11 02:59:34;;;;;;;13.82;8.27;;;21.10;99.90;;;;;;5052082;28;20032;-79
2023/07/11 03:02:00;;;;;;;18.42;7.25;;;21.10;99.90;;;;;;5053209;28;20025;-79
2023/07/11 03:04:26;;;;;;;13.25;7.78;;;21.10;99.90;;;;;;5051809;28;20017;-79
2023/07/11 03:06:56;;;;;;;13.52;7.57;;;21.10;99.90;;;;;;5051544;28;21580;-79
2023/07/11 03:09:23;;;;;;;11.98;7.43;;;21.10;99.90;;;;;;5053011;28;20028;-79
2023/07/11 03:11:49;;;;;;;17.08;8.35;;;21.10;99.90;;;;;;5050807;28;20021;-79
2023/07/11 03:14:15;;;;;;;15.60;7.53;;;21.10;99.90;;;;;;5052737;28;20048;-79
2023/07/11 03:16:42;;;;;;;15.88;7.88;;;21.10;99.90;;;;;;5051931;28;20113;-79
2023/07/11 03:19:08;;;;;;;12.15;7.00;;;21.10;99.90;;;;;;5051166;28;20049;-79
2023/07/11 03:21:34;;;;;;;15.50;7.70;;;21.10;99.90;;;;;;5052666;28;20017;-79
2023/07/11 03:24:00;;;;;;;15.32;8.73;;;21.10;99.90;;;;;;5052648;28;20119;-79
2023/07/11 03:26:26;;;;;;;17.23;8.30;;;21.10;99.90;;;;;;5052978;28;20078;-79
2023/07/11 03:28:51;;;;;;;12.80;8.70;;;21.10;99.90;;;;;;5052531;28;20118;-79
2023/07/11 03:31:17;;;;;;;12.38;7.30;;;21.00;99.90;;;;;;5051499;28;20025;-79
2023/07/11 03:33:46;;;;;;;14.13;8.30;;;21.00;99.90;;;;;;5051914;28;20029;-79
2023/07/11 03:36:11;;;;;;;18.50;7.70;;;20.90;99.90;;;;;;5051430;28;20021;-79
2023/07/11 03:38:37;;;;;;;10.85;7.65;;;20.90;99.90;;;;;;5051373;28;20227;-79
2023/07/11 03:41:03;;;;;;;17.23;7.93;;;20.90;99.90;;;;;;5051497;28;20398;-79
2023/07/11 03:43:29;;;;;;;13.55;7.75;;;20.80;99.90;;;;;;5051426;28;20036;-79
2023/07/11 03:45:55;;;;;;;12.10;7.75;;;20.80;99.90;;;;;;5051810;28;20375;-79
2023/07/11 03:48:21;;;;;;;13.15;8.30;;;20.80;99.90;;;;;;5052702;28;20358;-79
2023/07/11 03:50:46;;;;;;;12.30;7.32;;;20.90;99.90;;;;;;5051574;28;20016;-79
2023/07/11 03:53:14;;;;;;;10.52;7.78;;;20.90;99.90;;;;;;5051465;28;20025;-79
2023/07/11 03:55:43;;;;;;;14.80;8.35;;;20.90;99.90;;;;;;5052229;28;20025;-79
2023/07/11 03:58:09;;;;;;;18.55;8.60;;;20.90;99.90;;;;;;5051106;28;20043;-79
2023/07/11 04:00:35;;;;;;;12.52;8.20;;;20.80;99.90;;;;;;5052240;28;20025;-78
2023/07/11 04:03:00;;;;;;;13.68;8.50;;;20.70;99.90;;;;;;5051985;28;20025;-78
2023/07/11 04:05:26;;;;;;;15.50;8.20;;;20.80;99.90;;;;;;5051546;28;20360;-79
2023/07/11 04:07:52;;;;;;;17.45;9.73;;;20.70;99.90;;;;;;5052660;28;20451;-78
2023/07/11 04:10:18;;;;;;;14.70;9.48;;;20.70;99.90;;;;;;5052585;28;20021;-79
2023/07/11 04:12:44;;;;;;;13.77;9.63;;;20.70;99.90;;;;;;5052781;28;20337;-79
2023/07/11 04:15:10;;;;;;;12.77;9.02;;;20.80;99.90;;;;;;5050872;28;20017;-78
2023/07/11 04:17:36;;;;;;;18.75;9.40;;;20.90;99.90;;;;;;5052113;28;20032;-79
2023/07/11 04:20:02;;;;;;;16.75;9.23;;;20.90;99.90;;;;;;5050995;28;20029;-79
2023/07/11 04:22:29;;;;;;;15.90;10.52;;;20.90;99.90;;;;;;5051570;28;20367;-79
2023/07/11 04:24:55;;;;;;;18.08;11.02;;;20.90;99.90;;;;;;5051195;28;20076;-78
2023/07/11 04:27:21;;;;;;;18.27;9.30;;;21.00;99.90;;;;;;5054219;28;20448;-79
2023/07/11 04:29:46;;;;;;;16.70;9.55;;;21.10;99.90;;;;;;5056873;28;20032;-78
2023/07/11 04:32:12;;;;;;;14.90;9.70;;;21.10;99.90;;;;;;5056426;28;20031;-78
2023/07/11 04:34:38;;;;;;;15.48;9.02;;;21.20;99.90;;;;;;5055158;28;20114;-78
2023/07/11 04:37:04;;;;;;;15.73;9.98;;;21.20;99.90;;;;;;5056484;28;20033;-78
2023/07/11 04:39:30;;;;;;;23.45;10.57;;;21.20;99.90;;;;;;5055200;28;20033;-78
2023/07/11 04:41:55;;;;;;;19.08;10.02;;;21.30;99.90;;;;;;5056551;28;20052;-78
2023/07/11 04:44:21;;;;;;;25.95;9.98;;;21.30;99.90;;;;;;5055002;28;20413;-78
2023/07/11 04:46:47;;;;;;;16.92;9.38;;;21.50;99.90;;;;;;5055221;28;20028;-78
2023/07/11 04:49:13;;;;;;;14.85;9.57;;;21.50;99.90;;;;;;5056115;28;20363;-78
2023/07/11 04:51:38;;;;;;;14.85;8.80;;;21.60;99.90;;;;;;5056144;28;20036;-78
2023/07/11 04:54:04;;;;;;;18.13;9.15;;;21.80;99.90;;;;;;5056307;28;20083;-78
2023/07/11 04:56:30;;;;;;;19.52;9.38;;;21.90;99.90;;;;;;5055698;28;20021;-78
2023/07/11 04:58:55;;;;;;;18.17;9.07;;;22.00;99.90;;;;;;5054655;28;20033;-78
2023/07/11 05:01:21;;;;;;;18.10;8.65;;;22.10;99.90;;;;;;5055663;28;20489;-78
2023/07/11 05:03:49;;;;;;;18.17;9.63;;;22.10;99.90;;;;;;5054573;28;20099;-78
2023/07/11 05:06:15;;;;;;;18.70;9.25;;;22.20;99.90;;;;;;5055990;28;20021;-79
2023/07/11 05:08:41;;;;;;;16.45;9.02;;;;;;;;;;5054340;28;20035;-79
2023/07/11 05:11:15;;;;;;;16.27;9.50;;;;;;;;;;5055985;28;20028;-78
2023/07/11 05:13:42;;;;;;;17.75;8.65;;;;;;;;;;5055550;28;20422;-78
2023/07/11 05:16:09;;;;;;;19.55;10.35;;;;;;;;;;5055805;28;20021;-78
2023/07/11 05:18:37;;;;;;;22.40;10.60;;;;;;;;;;5054192;28;20044;-78
2023/07/11 05:21:03;;;;;;;15.77;9.70;;;;;;;;;;5053740;28;20451;-78
2023/07/11 05:23:30;;;;;;;17.88;10.23;;;;;;;;;;5055156;28;20032;-78
2023/07/11 05:25:56;;;;;;;18.65;10.60;;;;;;;;;;5055491;28;20078;-78
2023/07/11 05:28:24;;;;;;;19.38;10.05;;;;;;;;;;5054280;28;20021;-78
2023/07/11 05:30:51;;;;;;;20.00;9.60;;;;;;;;;;5055291;28;20046;-78
2023/07/11 05:33:17;;;;;;;14.60;8.88;;;;;;;;;;5055410;28;20099;-79
2023/07/11 05:36:36;;;;;;;20.60;8.95;;;;;;;;;;5055548;28;20100;-79
2023/07/11 05:38:37;;;;;;;20.15;9.35;;;;;;;;;;5054382;28;20463;-80
2023/07/11 05:41:03;;;;;;;18.13;8.77;;;;;;;;;;5054005;28;20045;-80
2023/07/11 05:43:29;;;;;;;18.63;10.25;;;;;;;;;;5054008;28;20059;-80
2023/07/11 05:45:55;;;;;;;27.83;9.90;;;;;;;;;;5053718;28;20025;-81
2023/07/11 05:48:21;;;;;;;17.10;8.95;;;;;;;;;;5055260;28;20448;-80
2023/07/11 05:51:08;;;;;;;20.08;9.85;;;;;;;;;;5053989;28;20028;-81
2023/07/11 05:53:34;;;;;;;25.42;11.13;;;;;;;;;;5053446;28;20028;-80
2023/07/11 05:56:00;;;;;;;20.75;10.82;;;;;;;;;;5054969;28;20021;-81
2023/07/11 05:58:27;;;;;;;19.17;10.68;;;;;;;;;;5053441;28;20075;-81
2023/07/11 06:00:54;;;;;;;14.02;8.55;;;;;;;;;;5053465;28;20086;-81
2023/07/11 06:03:25;;;;;;;20.30;9.20;;;;;;;;;;5054601;28;20578;-81
2023/07/11 06:05:53;;;;;;;20.02;10.05;;;;;;;;;;5053441;28;20041;-81
2023/07/11 06:08:19;;;;;;;18.88;9.20;;;;;;;;;;5053278;28;20530;-81
2023/07/11 06:10:46;;;;;;;21.85;10.05;;;;;;;;;;5054738;28;20021;-81
2023/07/11 06:13:12;;;;;;;19.40;10.52;;;;;;;;;;5054366;28;20447;-81
2023/07/11 06:15:39;;;;;;;20.58;9.93;;;;;;;;;;5053238;28;20032;-81
2023/07/11 06:18:05;;;;;;;18.40;10.13;;;;;;;;;;5053035;28;20127;-81
2023/07/11 06:20:31;;;;;;;19.60;9.90;;;;;;;;;;5053141;28;20027;-81
2023/07/11 06:22:57;;;;;;;22.17;9.43;;;;;;;;;;5054736;28;20066;-81
2023/07/11 06:25:23;;;;;;;20.40;8.98;;;;;;;;;;5053239;28;20024;-80
2023/07/11 06:27:50;;;;;;;17.48;9.50;;;;;;;;;;5054205;28;20041;-79
2023/07/11 06:30:16;;;;;;;23.58;9.40;;;;;;;;;;5054689;28;20021;-81
2023/07/11 06:32:42;;;;;;;20.83;8.75;;;;;;;;;;5053105;28;20021;-80
2023/07/11 06:35:08;;;;;;;15.70;8.63;;;;;;;;;;5052723;28;20025;-79
2023/07/11 06:37:35;;;;;;;18.15;9.63;;;;;;;;;;5054156;28;20025;-80
2023/07/11 06:40:06;;;;;;;17.85;9.20;;;;;;;;;;5053923;28;20021;-80
2023/07/11 06:42:32;;;;;;;20.65;10.15;;;;;;;;;;5054042;28;20379;-80
2023/07/11 06:44:58;;;;;;;20.25;8.80;;;;;;;;;;5053738;28;20379;-80
2023/07/11 06:47:24;;;;;;;17.40;8.75;;;;;;;;;;5053558;28;20368;-80
2023/07/11 06:49:50;;;;;;;17.35;8.20;;;;;;;;;;5053503;28;20348;-80
2023/07/11 06:52:16;;;;;;;20.73;8.57;;;;;;;;;;5052705;28;20460;-80
2023/07/11 06:54:43;;;;;;;18.23;8.68;;;;;;;;;;5053832;28;20455;-80
2023/07/11 06:57:09;;;;;;;14.82;8.27;;;;;;;;;;5052601;28;20051;-80
2023/07/11 06:59:35;;;;;;;20.27;9.25;;;;;;;;;;5053914;28;20025;-80
2023/07/11 07:02:03;;;;;;;17.65;8.40;;;;;;;;;;5052405;28;20471;-80
2023/07/11 07:04:29;;;;;;;21.17;9.10;;;;;;;;;;5052493;28;20036;-79
2023/07/11 07:06:55;;;;;;;21.65;7.63;;;;;;;;;;5052487;28;20019;-80
2023/07/11 07:09:22;;;;;;;22.85;9.73;;;;;;;;;;5052432;28;20498;-80
2023/07/11 07:11:48;;;;;;;19.65;8.80;;;;;;;;;;5052394;28;20024;-80
2023/07/11 07:14:14;;;;;;;33.22;9.02;;;;;;;;;;5053807;28;20456;-79
2023/07/11 07:16:40;;;;;;;20.90;8.95;;;;;;;;;;5053477;28;20032;-79
2023/07/11 07:19:07;;;;;;;23.58;10.35;;;;;;;;;;5053085;28;20048;-78
2023/07/11 07:21:34;;;;;;;17.55;10.40;;;;;;;;;;5053403;28;20371;-79
2023/07/11 07:24:00;;;;;;;21.10;10.25;;;;;;;;;;5053199;28;20016;-78
2023/07/11 07:26:26;;;;;;;21.92;11.20;;;;;;;;;;5053386;28;20411;-79
2023/07/11 07:28:53;;;;;;;24.48;9.98;;;;;;;;;;5053632;28;20017;-78
2023/07/11 07:31:19;;;;;;;19.52;9.82;;;;;;;;;;5053606;28;20033;-79
2023/07/11 07:33:45;;;;;;;16.58;8.88;;;;;;;;;;5053154;28;20391;-79
2023/07/11 07:36:12;;;;;;;13.77;7.57;;;;;;;;;;5053361;28;20029;-79
2023/07/11 07:38:39;;;;;;;19.15;7.70;;;;;;;;;;5053485;28;20036;-79
2023/07/11 07:41:06;;;;;;;17.50;7.88;;;;;;;;;;5053403;28;20024;-79
2023/07/11 07:43:33;;;;;;;17.42;7.57;;;;;;;;;;5053122;28;20455;-79
2023/07/11 07:46:00;;;;;;;17.00;8.05;;;;;;;;;;5053353;28;20032;-79
2023/07/11 07:48:27;;;;;;;16.25;7.38;;;;;;;;;;5053560;28;20025;-79
2023/07/11 07:50:54;;;;;;;17.45;7.78;;;;;;;;;;5053563;28;20024;-79
2023/07/11 07:53:20;;;;;;;13.60;6.60;;;;;;;;;;5052031;28;20459;-79
2023/07/11 07:55:46;;;;;;;11.60;6.32;;;;;;;;;;5052273;28;20406;-79
2023/07/11 07:58:14;;;;;;;12.32;6.80;;;;;;;;;;5053382;28;20070;-79
2023/07/11 08:00:41;;;;;;;10.70;6.35;;;;;;;;;;5052607;28;20029;-80
2023/07/11 08:03:08;;;;;;;11.95;6.20;;;;;;;;;;5057501;28;20048;-79
2023/07/11 08:05:36;;;;;;;9.27;5.70;;;;;;;;;;5056950;28;20013;-79
2023/07/11 08:08:03;;;;;;;11.18;5.63;;;;;;;;;;5055760;28;20013;-79
2023/07/11 08:10:29;;;;;;;16.42;5.30;;;;;;;;;;5057352;28;20021;-80
2023/07/11 08:12:55;;;;;;;11.60;4.82;;;;;;;;;;5056873;28;20025;-79
2023/07/11 08:15:21;;;;;;;10.90;5.03;;;;;;;;;;5056760;28;20017;-80
2023/07/11 08:17:48;;;;;;;10.35;4.65;;;;;;;;;;5056585;28;20037;-79
2023/07/11 08:20:14;;;;;;;12.77;4.90;;;;;;;;;;5054944;28;20030;-80
2023/07/11 08:22:40;;;;;;;12.75;4.88;;;;;;;;;;5056466;28;20469;-78
2023/07/11 08:25:07;;;;;;;22.02;5.32;;;;;;;;;;5056807;28;20025;-80
2023/07/11 08:27:33;;;;;;;17.95;5.00;;;;;;;;;;5056945;28;20077;-80
2023/07/11 08:29:59;;;;;;;11.35;4.45;;;;;;;;;;5056666;28;20071;-79
2023/07/11 08:32:25;;;;;;;14.90;4.63;;;;;;;;;;5055214;28;20031;-79
2023/07/11 08:34:51;;;;;;;18.55;4.72;;;;;;;;;;5056347;28;20013;-79
2023/07/11 08:37:19;;;;;;;12.65;4.43;;;;;;;;;;5056328;28;20024;-79
2023/07/11 08:39:45;;;;;;;16.00;5.32;;;;;;;;;;5056289;28;20416;-79
2023/07/11 08:42:35;;;;;;;14.95;4.43;;;;;;;;;;5055075;28;20116;-78
2023/07/11 08:45:19;;;;;;;9.88;4.30;;;;;;;;;;5052146;28;20475;-79
2023/07/11 08:47:54;;;;;;;11.20;4.30;;;;;;;;;;5056149;28;20045;-77
2023/07/11 08:50:31;;;;;;;11.63;4.10;;;;;;;;;;5055025;28;20025;-79
2023/07/11 08:53:05;;;;;;;11.35;4.03;;;;;;;;;;5056522;28;20017;-79
2023/07/11 08:55:34;;;;;;;7.70;4.30;;;;;;;;;;5055158;28;20025;-79
2023/07/11 08:58:06;;;;;;;10.82;4.55;;;;;;;;;;5056048;28;20103;-78
2023/07/11 09:00:33;;;;;;;8.70;3.80;;;;;;;;;;5055695;28;20068;-77
2023/07/11 09:03:24;;;;;;;10.23;4.20;;;;;;;;;;5054687;28;20032;-79
2023/07/11 09:06:07;;;;;;;8.47;4.07;;;;;;;;;;5056129;28;20017;-80
2023/07/11 09:08:35;;;;;;;9.32;4.00;;;;;;;;;;5056043;28;20116;-79
2023/07/11 09:11:07;;;;;;;11.05;4.32;;;;;;;;;;5055471;28;20069;-79
2023/07/11 09:13:36;;;;;;;9.38;4.40;;;;;;;;;;5054166;28;20025;-78
2023/07/11 09:16:14;;;;;;;9.63;4.07;;;;;;;;;;5054416;28;20025;-79
2023/07/11 09:18:43;;;;;;;10.02;3.95;;;;;;;;;;5054317;28;20040;-78
2023/07/11 09:21:21;;;;;;;9.05;4.32;;;;;;;;;;5054769;28;20467;-78
2023/07/11 09:24:05;;;;;;;8.60;3.67;;;;;;;;;;5056177;28;20025;-79
2023/07/11 09:26:35;;;;;;;10.75;3.92;;;;;;;;;;5055564;28;20028;-78
2023/07/11 09:29:03;;;;;;;15.55;4.88;;;;;;;;;;5054224;28;20024;-80
2023/07/11 09:31:33;;;;;;;14.05;3.90;;;;;;;;;;5054842;28;20036;-78
2023/07/11 09:34:05;;;;;;;16.23;4.93;;;;;;;;;;5053921;28;20070;-78
2023/07/11 09:36:33;;;;;;;10.18;4.15;;;;;;;;;;5053767;28;20063;-79
2023/07/11 09:39:17;;;;;;;11.32;4.07;;;;;;;;;;5054999;28;20025;-78
2023/07/11 09:41:46;;;;;;;12.48;4.05;;;;;;;;;;5055169;28;20025;-79
2023/07/11 09:44:12;;;;;;;9.85;5.43;;;;;;;;;;5053799;28;20021;-79
2023/07/11 09:46:38;;;;;;;10.57;4.45;;;;;;;;;;5055176;28;20025;-79
2023/07/11 09:49:09;;;;;;;13.60;4.68;;;;;;;;;;5054830;28;20036;-79
2023/07/11 09:51:36;;;;;;;12.48;4.10;;;;;;;;;;5054007;28;20021;-79
2023/07/11 09:54:04;;;;;;;12.52;3.95;;;;;;;;;;5053756;28;20020;-79
2023/07/11 09:56:43;;;;;;;17.02;4.85;;;;;;;;;;5053576;28;20103;-79
2023/07/11 09:59:10;;;;;;;11.18;4.32;;;;;;;;;;5053640;28;20032;-79
2023/07/11 10:01:37;;;;;;;13.10;4.53;;;;;;;;;;5053702;28;20414;-79
2023/07/11 10:04:06;;;;;;;14.60;4.07;;;;;;;;;;5054710;28;20017;-79
2023/07/11 10:06:41;;;;;;;12.57;3.95;;;;;;;;;;5053560;28;20017;-79
2023/07/11 10:09:37;;;;;;;7.72;3.75;;;;;;;;;;5054966;28;20143;-79
2023/07/11 10:12:05;;;;;;;13.00;4.68;;;;;;;;;;5032273;28;20099;-78
2023/07/11 10:14:33;;;;;;;7.18;4.07;;;;;;;;;;5032452;28;20363;-78
2023/07/11 10:17:02;;;;;;;11.02;3.85;;;;;;;;;;5012600;28;20069;-78
2023/07/11 10:19:29;;;;;;;9.07;4.18;;;;;;;;;;5031226;28;20132;-79
2023/07/11 10:21:58;;;;;;;5.95;3.67;;;;;;;;;;5032109;28;20065;-79
2023/07/11 10:24:25;;;;;;;13.18;4.22;;;;;;;;;;5031633;28;20026;-78
2023/07/11 10:26:56;;;;;;;6.95;4.28;;;;;;;;;;5012275;28;20025;-79
2023/07/11 10:29:24;;;;;;;8.07;3.80;;;;;;;;;;5020739;28;20038;-78
2023/07/11 10:31:53;;;;;;;9.52;4.00;;;;;;;;;;5031912;28;20033;-79
2023/07/11 10:34:19;;;;;;;11.98;4.07;;;;;;;;;;5032054;28;20037;-78
2023/07/11 10:36:53;;;;;;;9.02;4.65;;;;;;;;;;5015601;28;20460;-80
2023/07/11 10:39:37;;;;;;;10.90;3.90;;;;;;;;;;5031991;28;20049;-79
2023/07/11 10:42:06;;;;;;;9.70;4.10;;;;;;;;;;5015412;28;20124;-77
2023/07/11 10:44:40;;;;;;;15.13;4.45;;;;;;;;;;5031990;28;20045;-78
2023/07/11 10:47:09;;;;;;;11.50;4.10;;;;;;;;;;5015081;28;20038;-79
2023/07/11 10:49:43;;;;;;;14.90;4.65;;;;;;;;;;5045319;28;20039;-78
2023/07/11 10:52:13;;;;;;;6.55;4.10;;;;;;;;;;5052584;28;20025;-79
2023/07/11 10:54:48;;;;;;;14.20;4.53;;;;;;;;;;5054301;28;20108;-79
2023/07/11 10:57:17;;;;;;;15.20;4.60;;;;;;;;;;5053694;28;20043;-79
2023/07/11 10:59:44;;;;;;;12.77;4.35;;;;;;;;;;5053663;28;20033;-80
2023/07/11 11:02:10;;;;;;;9.10;4.00;;;;;;;;;;5053295;28;20021;-79
2023/07/11 11:04:48;;;;;;;15.02;5.03;;;;;;;;;;5053666;28;20103;-79
2023/07/11 11:07:33;;;;;;;16.52;5.05;;;;;;;;;;5053281;28;20348;-79
2023/07/11 11:10:22;;;;;;;14.15;3.90;;;;;;;;;;5053404;28;20033;-79
2023/07/11 11:13:09;;;;;;;17.02;5.07;;;;;;;;;;5053279;28;20049;-80
2023/07/11 11:15:35;;;;;;;10.10;4.40;;;;;;;;;;5041052;28;20490;-79
2023/07/11 11:18:07;;;;;;;7.43;4.60;;;;;;;;;;5053467;28;20107;-80
2023/07/11 11:20:45;;;;;;;8.65;4.13;;;;;;;;;;5051497;28;20021;-80
2023/07/11 11:23:29;;;;;;;7.63;4.10;;;;;;;;;;5053361;28;20013;-80
2023/07/11 11:26:11;;;;;;;9.18;4.07;;;;;;;;;;5051773;28;20056;-78
2023/07/11 11:29:00;;;;;;;8.77;4.18;;;;;;;;;;5052030;28;20112;-79
2023/07/11 11:31:30;;;;;;;7.78;4.38;;;;;;;;;;5052560;28;20021;-80
2023/07/11 11:33:56;;;;;;;8.25;3.95;;;;;;;;;;5052015;28;20021;-79
2023/07/11 11:36:22;;;;;;;7.75;3.63;;;;;;;;;;5055855;28;20020;-80
2023/07/11 11:39:13;;;;;;;8.20;3.78;;;;;;;;;;5056117;28;20455;-79
2023/07/11 11:41:45;;;;;;;9.93;4.30;;;;;;;;;;5056089;28;20344;-79
2023/07/11 11:44:10;;;;;;;;;;;;;;;;;;5058127;28;20021;-80
2023/07/11 11:46:37;;;;;;;8.27;3.47;;;;;;;;;;5057295;28;19908;-78
2023/07/11 11:49:07;;;;;;;9.98;4.10;;;;;;;;;;5055945;28;20024;-79
2023/07/11 11:51:34;;;;;;;6.90;3.65;;;;;;;;;;5057315;28;20394;-79
2023/07/11 11:54:16;;;;;;;7.60;4.45;;;;;;;;;;5057133;28;20032;-79
2023/07/11 11:56:46;;;;;;;8.90;4.20;;;;;;;;;;5055950;28;20028;-80
2023/07/11 11:59:17;;;;;;;7.43;4.03;;;;;;;;;;5057241;28;20095;-78
2023/07/11 12:02:13;;;;;;;10.10;4.13;;;;;;;;;;5056396;28;20783;-78
2023/07/11 12:04:55;;;;;;;8.30;3.88;;;;;;;;;;5014014;28;20034;-80
2023/07/11 12:07:25;;;;;;;7.47;3.88;;;;;;;;;;5014988;28;20482;-80
2023/07/11 12:09:56;;;;;;;6.43;4.03;;;;;;;;;;4998383;28;20041;-81
2023/07/11 12:12:45;;;;;;;12.50;4.00;;;;;;;;;;5015183;28;20464;-80
2023/07/11 12:15:11;;;;;;;19.15;5.32;;;;;;;;;;4998211;28;20021;-80
2023/07/11 12:17:38;;;;;;;11.77;3.80;;;;;;;;;;4999569;28;20026;-80
2023/07/11 12:20:07;;;;;;;9.63;4.38;;;;;;;;;;4995184;28;20073;-80
2023/07/11 12:22:39;;;;;;;13.10;4.40;;;;;;;;;;5020272;28;20476;-81
2023/07/11 12:25:24;;;;;;;10.65;4.43;;;;;;;;;;5019265;28;20034;-80
2023/07/11 12:28:01;;;;;;;15.80;4.40;;;;;;;;;;5012480;28;20042;-79
2023/07/11 12:30:27;;;;;;;10.68;4.22;;;;;;;;;;4998049;28;20026;-80
2023/07/11 12:33:13;;;;;;;9.77;4.85;;;;;;;;;;5004469;28;20081;-80
2023/07/11 12:35:40;;;;;;;11.45;4.47;;;;;;;;;;5012478;28;20045;-80
2023/07/11 12:38:11;;;;;;;10.27;4.18;;;;;;;;;;4997745;28;20029;-79
2023/07/11 12:40:45;;;;;;;12.02;4.30;;;;;;;;;;5015290;28;20131;-80
2023/07/11 12:43:22;;;;;;;7.45;4.53;;;;;;;;;;5054973;28;20025;-78
2023/07/11 12:45:55;;;;;;;7.72;4.03;;;;;;;;;;5054938;28;20351;-80
2023/07/11 12:48:22;;;;;;;7.22;4.03;;;;;;;;;;5056009;28;20025;-79
2023/07/11 12:50:49;;;;;;;7.32;3.85;;;;;;;;;;5056343;28;20052;-79
2023/07/11 12:53:16;;;;;;;10.93;4.53;;;;;;;;;;5054851;28;20025;-80
2023/07/11 12:55:42;;;;;;;13.32;4.28;;;;;;;;;;5056385;28;20452;-79
2023/07/11 12:58:19;;;;;;;9.38;4.78;;;;;;;;;;5056029;28;20024;-80
2023/07/11 13:00:45;;;;;;;7.60;4.40;;;;;;;;;;5056237;28;20482;-80
2023/07/11 13:03:36;;;;;;;6.57;4.13;;;;;;;;;;5054764;28;20031;-78
2023/07/11 13:06:03;;;;;;;9.32;4.55;;;;;;;;;;5053259;28;20079;-80
2023/07/11 13:08:39;;;;;;;5.72;3.70;;;;;;;;;;5054130;28;20028;-79
2023/07/11 13:11:05;;;;;;;10.40;4.18;;;;;;;;;;5054180;28;20020;-79
2023/07/11 13:13:33;;;;;;;8.80;3.85;;;;;;;;;;5054049;28;20027;-81
2023/07/11 13:16:05;;;;;;;6.30;3.83;;;;;;;;;;5055057;28;20185;-81
2023/07/11 13:18:44;;;;;;;7.57;4.13;;;;;;;;;;5055738;28;20097;-80
2023/07/11 13:21:11;;;;;;;10.32;4.10;;;;;;;;;;5055331;28;20025;-80
2023/07/11 13:23:38;;;;;;;10.18;4.65;;;;;;;;;;5055697;28;20407;-81
2023/07/11 13:26:09;;;;;;;5.68;3.58;;;;;;;;;;5055748;28;20017;-80
2023/07/11 13:28:37;;;;;;;9.82;4.53;;;;;;;;;;5054269;28;20395;-79
2023/07/11 13:31:04;;;;;;;7.60;4.20;;;;;;;;;;5055147;28;20192;-79
2023/07/11 13:33:35;;;;;;;11.88;4.50;;;;;;;;;;5052136;28;20020;-80
2023/07/11 13:36:03;;;;;;;6.78;4.10;;;;;;;;;;5051620;28;20108;-80
2023/07/11 13:38:40;;;;;;;7.20;3.83;;;;;;;;;;5034493;28;20051;-80
2023/07/11 13:41:06;;;;;;;9.18;3.97;;;;;;;;;;5053053;28;20029;-81
2023/07/11 13:43:33;;;;;;;6.63;3.88;;;;;;;;;;5053072;28;20025;-80
2023/07/11 13:46:00;;;;;;;8.43;4.38;;;;;;;;;;5054363;28;20020;-79
2023/07/11 13:48:28;;;;;;;10.27;4.32;;;;;;;;;;5054281;28;20024;-80
2023/07/11 13:51:24;;;;;;;11.75;4.78;;;;;;;;;;5054511;28;20526;-80
2023/07/11 13:53:52;;;;;;;10.98;4.50;;;;;;;;;;5015439;28;20056;-81
2023/07/11 13:56:19;;;;;;;7.55;4.72;;;;;;;;;;5032114;28;20025;-79